Naikai2 — JD2433 — position and weather

sailwx.info

Track history (hours):
 
Tides and Currents Weather Stations Pressure Air Temp Water Temp Dewpoint Dewpoint Depression Visibility Wind Speed Wind Dir Waves Ship Positions

Naikai2

Last reported at 2017-Mar-23 08:20 UTC. Time now 2017-Mar-24 12:13 UTC.
Position N 34°38' E 135°10'.

Length 28 m; draft 2.2 m.

Type: Other ship. MMSI: 431000283.

Date/timePositionNaut miles runAvg speedWind from/ knotsBaromVisibWave heightAir tempDewpointWater temp
2017-Mar-23 08:20N 34°38' E 135°10'11 3.7
2017-Mar-23 05:26N 34°29' E 135°04'7 0.2
2017-Mar-22 02:33N 34°35' E 135°06'6 6.0
2017-Mar-22 01:33N 34°29' E 135°07'1611.7
2017-Mar-22 00:13N 34°15' E 134°59'14 0.8
2017-Mar-21 07:28N 34°28' E 135°04'9 9.3
2017-Mar-21 06:28N 34°37' E 135°01'13 4.3
2017-Mar-21 03:28N 34°41' E 134°46'1413.8
2017-Mar-21 02:28N 34°37' E 135°02'8 8.2
2017-Mar-21 01:33N 34°40' E 135°11'1 1.2
2017-Mar-21 00:33N 34°39' E 135°10'0 0.0
2017-Mar-20 08:12N 34°39' E 135°10'11 2.3
2017-Mar-20 03:17N 34°37' E 134°57'710.2
2017-Mar-20 02:33N 34°35' E 135°06'7 6.5
2017-Mar-20 01:33N 34°29' E 135°06'1413.2
2017-Mar-20 00:29N 34°16' E 134°59'8 4.0
2017-Mar-19 22:31N 34°24' E 135°01'13 2.6
2017-Mar-19 17:33N 34°37' E 134°60'6 6.0
2017-Mar-19 16:33N 34°35' E 135°06'5 5.0
2017-Mar-19 15:33N 34°39' E 135°10'2 0.1
2017-Mar-18 23:26N 34°37' E 135°11'1213.7
2017-Mar-18 22:33N 34°33' E 135°25'8 8.3
2017-Mar-18 21:32N 34°31' E 135°15'2311.5
2017-Mar-18 19:32N 34°13' E 134°58'11 1.0
2017-Mar-18 08:16N 34°23' E 135°01'1013.9
2017-Mar-18 07:33N 34°32' E 135°06'18 1.8
2017-Mar-17 21:13N 34°41' E 134°47'912.8
2017-Mar-17 20:32N 34°37' E 134°57'8 8.6
2017-Mar-17 19:33N 34°35' E 135°07'5 5.2
2017-Mar-17 18:33N 34°39' E 135°10'0 0.0
2017-Mar-17 08:16N 34°39' E 135°10'1 1.6
2017-Mar-17 07:33N 34°39' E 135°11'9 2.0
2017-Mar-17 03:22N 34°37' E 135°01'7 8.7
2017-Mar-17 02:33N 34°33' E 135°09'8 7.6
2017-Mar-17 01:32N 34°26' E 135°05'1310.2
2017-Mar-17 00:19N 34°15' E 134°59'5 6.1
2017-Mar-16 23:33N 34°12' E 135°03'16 0.9
2017-Mar-16 04:27N 34°28' E 135°04'7 7.4
2017-Mar-16 03:30N 34°35' E 135°04'9 0.3
2017-Mar-14 20:10N 34°35' E 134°53'711.0
2017-Mar-14 19:33N 34°37' E 135°01'7 6.6
2017-Mar-14 18:33N 34°34' E 135°08'8 8.4
2017-Mar-14 17:33N 34°26' E 135°05'1210.9
2017-Mar-14 16:29N 34°16' E 134°59'14 1.2
2017-Mar-14 04:31N 34°29' E 135°03'1313.3
2017-Mar-14 03:33N 34°40' E 135°11'  
Track history (hours):
 
Tides and Currents Weather Stations Pressure Air Temp Water Temp Dewpoint Dewpoint Depression Visibility Wind Speed Wind Dir Waves Ship Positions

Naikai2

Last reported at 2017-Mar-23 08:20 UTC. Time now 2017-Mar-24 12:13 UTC.
Position N 34°38' E 135°10'.

Length 28 m; draft 2.2 m.

Type: Other ship. MMSI: 431000283.

Date/timePositionNaut miles runAvg speedWind from/ knotsBaromVisibWave heightAir tempDewpointWater temp
2017-Mar-23 08:20N 34°38' E 135°10'11 3.7
2017-Mar-23 05:26N 34°29' E 135°04'7 0.2
2017-Mar-22 02:33N 34°35' E 135°06'6 6.0
2017-Mar-22 01:33N 34°29' E 135°07'1611.7
2017-Mar-22 00:13N 34°15' E 134°59'14 0.8
2017-Mar-21 07:28N 34°28' E 135°04'9 9.3
2017-Mar-21 06:28N 34°37' E 135°01'13 4.3
2017-Mar-21 03:28N 34°41' E 134°46'1413.8
2017-Mar-21 02:28N 34°37' E 135°02'8 8.2
2017-Mar-21 01:33N 34°40' E 135°11'1 1.2
2017-Mar-21 00:33N 34°39' E 135°10'0 0.0
2017-Mar-20 08:12N 34°39' E 135°10'11 2.3
2017-Mar-20 03:17N 34°37' E 134°57'710.2
2017-Mar-20 02:33N 34°35' E 135°06'7 6.5
2017-Mar-20 01:33N 34°29' E 135°06'1413.2
2017-Mar-20 00:29N 34°16' E 134°59'8 4.0
2017-Mar-19 22:31N 34°24' E 135°01'13 2.6
2017-Mar-19 17:33N 34°37' E 134°60'6 6.0
2017-Mar-19 16:33N 34°35' E 135°06'5 5.0
2017-Mar-19 15:33N 34°39' E 135°10'2 0.1
2017-Mar-18 23:26N 34°37' E 135°11'1213.7
2017-Mar-18 22:33N 34°33' E 135°25'8 8.3
2017-Mar-18 21:32N 34°31' E 135°15'2311.5
2017-Mar-18 19:32N 34°13' E 134°58'11 1.0
2017-Mar-18 08:16N 34°23' E 135°01'1013.9
2017-Mar-18 07:33N 34°32' E 135°06'18 1.8
2017-Mar-17 21:13N 34°41' E 134°47'912.8
2017-Mar-17 20:32N 34°37' E 134°57'8 8.6
2017-Mar-17 19:33N 34°35' E 135°07'5 5.2
2017-Mar-17 18:33N 34°39' E 135°10'0 0.0
2017-Mar-17 08:16N 34°39' E 135°10'1 1.6
2017-Mar-17 07:33N 34°39' E 135°11'9 2.0
2017-Mar-17 03:22N 34°37' E 135°01'7 8.7
2017-Mar-17 02:33N 34°33' E 135°09'8 7.6
2017-Mar-17 01:32N 34°26' E 135°05'1310.2
2017-Mar-17 00:19N 34°15' E 134°59'5 6.1
2017-Mar-16 23:33N 34°12' E 135°03'16 0.9
2017-Mar-16 04:27N 34°28' E 135°04'7 7.4
2017-Mar-16 03:30N 34°35' E 135°04'9 0.3
2017-Mar-14 20:10N 34°35' E 134°53'711.0
2017-Mar-14 19:33N 34°37' E 135°01'7 6.6
2017-Mar-14 18:33N 34°34' E 135°08'8 8.4
2017-Mar-14 17:33N 34°26' E 135°05'1210.9
2017-Mar-14 16:29N 34°16' E 134°59'14 1.2
2017-Mar-14 04:31N 34°29' E 135°03'1313.3
2017-Mar-14 03:33N 34°40' E 135°11'  

Dump ship's entire track history